| time (UTC) | temp F | wind direction | speed knots | gust knots | rain 1hr in | rain 24hr in | rain mn in | humidity % | barometer mb |
| 20260505223052 | 80 | 143 | 3.5 | 8.7 | 0.00 | 0.00 | 0.00 | 32 | 1006.0 |
| 20260505221537 | 80 | 73 | 2.6 | 10.4 | 0.00 | 0.00 | 0.00 | 32 | 1006.0 |
| 20260505220042 | 81 | 113 | 3.5 | 10.4 | 0.00 | 0.00 | 0.00 | 30 | 1005.8 |
| 20260505214536 | 80 | 118 | 2.6 | 10.4 | 0.00 | 0.00 | 0.00 | 29 | 1005.9 |
| 20260505213137 | 80 | 175 | 1.7 | 13.9 | 0.00 | 0.00 | 0.00 | 30 | 1005.7 |
| 20260505211533 | 81 | 126 | 3.5 | 18.2 | 0.00 | 0.00 | 0.00 | 31 | 1005.4 |
| 20260505210032 | 81 | 121 | 7.8 | 15.6 | 0.00 | 0.00 | 0.00 | 30 | 1005.4 |
| 20260505204530 | 81 | 202 | 2.6 | 13.0 | 0.00 | 0.00 | 0.00 | 32 | 1005.4 |
| 20260505203042 | 82 | 133 | 2.6 | 14.8 | 0.00 | 0.00 | 0.00 | 32 | 1005.5 |
| 20260505201528 | 82 | 140 | 4.3 | 19.1 | 0.00 | 0.00 | 0.00 | 31 | 1005.6 |
| 20260505200034 | 82 | 147 | 6.1 | 16.5 | 0.00 | 0.00 | 0.00 | 30 | 1005.6 |
| 20260505194525 | 82 | 147 | 1.7 | 13.9 | 0.00 | 0.00 | 0.00 | 32 | 1005.5 |
| 20260505193023 | 81 | 135 | 6.1 | 15.6 | 0.00 | 0.00 | 0.00 | 33 | 1005.9 |
| 20260505191521 | 82 | 132 | 6.1 | 17.4 | 0.00 | 0.00 | 0.00 | 32 | 1006.1 |
| 20260505190024 | 82 | 176 | 5.2 | 12.2 | 0.00 | 0.00 | 0.00 | 33 | 1006.2 |
| 20260505184522 | 82 | 117 | 5.2 | 13.9 | 0.00 | 0.00 | 0.00 | 34 | 1006.4 |
| 20260505183014 | 82 | 182 | 4.3 | 19.1 | 0.00 | 0.00 | 0.00 | 34 | 1006.8 |
| 20260505181512 | 81 | 167 | 5.2 | 11.3 | 0.00 | 0.00 | 0.00 | 37 | 1006.8 |
| 20260505180011 | 81 | 189 | 5.2 | 14.8 | 0.00 | 0.00 | 0.00 | 38 | 1006.9 |
| 20260505174514 | 80 | 111 | 2.6 | 15.6 | 0.00 | 0.00 | 0.00 | 38 | 1007.0 |
| 20260505173025 | 81 | 131 | 1.7 | 9.6 | 0.00 | 0.00 | 0.00 | 40 | 1007.1 |
| 20260505171505 | 80 | 123 | 2.6 | 11.3 | 0.00 | 0.00 | 0.00 | 40 | 1007.5 |
| 20260505170002 | 80 | 153 | 4.3 | 13.0 | 0.00 | 0.00 | 0.00 | 40 | 1007.6 |
| 20260505164605 | 79 | 146 | 3.5 | 8.7 | 0.00 | 0.00 | 0.00 | 43 | 1007.8 |
| 20260505163102 | 78 | 133 | 3.5 | 7.8 | 0.00 | 0.00 | 0.00 | 44 | 1008.0 |
| 20260505161554 | 77 | 161 | 2.6 | 12.2 | 0.00 | 0.00 | 0.00 | 45 | 1008.2 |
| 20260505153104 | 74 | 123 | 3.5 | 10.4 | 0.00 | 0.00 | 0.00 | 49 | 1008.8 |
| 20260505151553 | 73 | 146 | 4.3 | 10.4 | 0.00 | 0.00 | 0.00 | 49 | 1008.9 |
| 20260505124510 | 62 | 152 | 1.7 | 5.2 | 0.00 | 0.00 | 0.00 | 70 | 1009.0 |
| 20260505123006 | 60 | 142 | 1.7 | 7.0 | 0.00 | 0.00 | 0.00 | 74 | 1009.1 |
| 20260505121502 | 58 | 169 | 0.9 | 7.0 | 0.00 | 0.00 | 0.00 | 76 | 1009.2 |
| 20260505120059 | 57 | 177 | 1.7 | 7.8 | 0.00 | 0.00 | 0.00 | 79 | 1009.6 |
| 20260505114555 | 55 | 160 | 0.0 | 5.2 | 0.00 | 0.00 | 0.00 | 85 | 1009.6 |
| 20260505113100 | 54 | 134 | 0.0 | 0.9 | 0.00 | 0.00 | 0.00 | 87 | 1009.5 |
| 20260505111557 | 54 | 134 | 0.0 | 1.7 | 0.00 | 0.00 | 0.00 | 86 | 1009.0 |
| 20260505101547 | 51 | 134 | 0.0 | 1.7 | 0.00 | 0.00 | 0.00 | 84 | 1009.3 |
| 20260505100051 | 51 | 134 | 0.0 | 1.7 | 0.00 | 0.00 | 0.00 | 87 | 1009.0 |
| 20260505094544 | 51 | 134 | 0.0 | 1.7 | 0.00 | 0.00 | 0.00 | 87 | 1009.1 |
| 20260505093043 | 51 | 134 | 0.0 | 0.0 | 0.00 | 0.00 | 0.00 | 86 | 1008.8 |
| 20260505091552 | 51 | 134 | 0.0 | 0.0 | 0.00 | 0.00 | 0.00 | 85 | 1008.7 |
| 20260505090051 | 52 | 134 | 0.0 | 0.0 | 0.00 | 0.00 | 0.00 | 82 | 1008.5 |
| 20260505084539 | 53 | 134 | 0.0 | 0.0 | 0.00 | 0.00 | 0.00 | 82 | 1008.4 |
| 20260505083043 | 53 | 134 | 0.0 | 1.7 | 0.00 | 0.00 | 0.00 | 81 | 1008.5 |
| 20260505081551 | 53 | 134 | 0.0 | 1.7 | 0.00 | 0.00 | 0.00 | 80 | 1008.5 |
| 20260505080042 | 53 | 134 | 0.0 | 1.7 | 0.00 | 0.00 | 0.00 | 79 | 1008.6 |
| 20260505074540 | 53 | 134 | 0.0 | 1.7 | 0.00 | 0.00 | 0.00 | 81 | 1008.6 |
| 20260505073034 | 52 | 134 | 0.0 | 1.7 | 0.00 | 0.00 | 0.00 | 80 | 1008.6 |
| 20260505071532 | 52 | 134 | 0.0 | 1.7 | 0.00 | 0.00 | 0.00 | 81 | 1008.4 |
| 20260505070031 | 52 | 134 | 0.0 | 0.0 | 0.00 | 0.00 | 0.00 | 80 | 1008.6 |
| 20260505064533 | 52 | 134 | 0.0 | 0.0 | 0.00 | 0.00 | 0.00 | 79 | 1008.6 |
| 20260505063035 | 52 | 134 | 0.0 | 0.0 | 0.00 | 0.00 | 0.00 | 78 | 1008.6 |
| 20260505061532 | 53 | 134 | 0.0 | 0.0 | 0.00 | 0.00 | 0.00 | 77 | 1008.7 |
| 20260505060024 | 53 | 134 | 0.0 | 0.0 | 0.00 | 0.00 | 0.00 | 76 | 1008.7 |
| 20260505054526 | 53 | 134 | 0.0 | 0.0 | 0.00 | 0.00 | 0.00 | 74 | 1008.8 |
| 20260505053020 | 54 | 134 | 0.0 | 0.0 | 0.00 | 0.00 | 0.00 | 73 | 1008.8 |
| 20260505051518 | 54 | 134 | 0.0 | 0.0 | 0.00 | 0.00 | 0.00 | 71 | 1009.0 |
| 20260505041512 | 54 | 136 | 0.0 | 0.9 | 0.00 | 0.00 | 0.00 | 68 | 1009.1 |
| 20260505040011 | 55 | 136 | 0.0 | 1.7 | 0.00 | 0.00 | 0.00 | 67 | 1009.1 |
| 20260505034512 | 55 | 136 | 0.0 | 0.0 | 0.00 | 0.00 | 0.00 | 65 | 1009.1 |
| 20260505033020 | 55 | 136 | 0.0 | 0.0 | 0.00 | 0.00 | 0.00 | 64 | 1009.2 |
| 20260505031509 | 56 | 136 | 0.0 | 0.0 | 0.00 | 0.00 | 0.00 | 62 | 1009.2 |
| 20260505030009 | 56 | 136 | 0.0 | 0.0 | 0.00 | 0.00 | 0.00 | 62 | 1009.4 |
| 20260505024523 | 56 | 136 | 0.0 | 0.0 | 0.00 | 0.00 | 0.00 | 61 | 1009.3 |
| 20260505023008 | 57 | 136 | 0.0 | 0.0 | 0.00 | 0.00 | 0.00 | 60 | 1009.3 |
| 20260505021523 | 58 | 136 | 0.0 | 0.0 | 0.00 | 0.00 | 0.00 | 58 | 1009.2 |
| 20260505020007 | 59 | 136 | 0.0 | 0.0 | 0.00 | 0.00 | 0.00 | 58 | 1009.4 |
| 20260505014506 | 60 | 136 | 0.0 | 0.0 | 0.00 | 0.00 | 0.00 | 56 | 1009.1 |
| 20260505013006 | 61 | 136 | 0.0 | 0.0 | 0.00 | 0.00 | 0.00 | 56 | 1009.1 |
| 20260505011507 | 62 | 136 | 0.0 | 0.9 | 0.00 | 0.00 | 0.00 | 52 | 1008.9 |
| 20260505010006 | 63 | 132 | 0.0 | 0.0 | 0.00 | 0.00 | 0.00 | 50 | 1008.7 |
| 20260505004513 | 64 | 160 | 0.0 | 1.7 | 0.00 | 0.00 | 0.00 | 49 | 1008.4 |
| 20260505003005 | 65 | 163 | 0.0 | 2.6 | 0.00 | 0.00 | 0.00 | 46 | 1008.3 |
| 20260505001504 | 66 | 133 | 0.0 | 2.6 | 0.00 | 0.00 | 0.00 | 46 | 1008.1 |
| 20260505000003 | 67 | 155 | 0.0 | 4.3 | 0.00 | 0.00 | 0.00 | 44 | 1007.8 |
| 20260504234503 | 67 | 176 | 0.0 | 5.2 | 0.00 | 0.00 | 0.00 | 41 | 1007.5 |
| 20260504233003 | 68 | 159 | 0.0 | 6.1 | 0.00 | 0.00 | 0.00 | 41 | 1007.3 |
| 20260504231501 | 69 | 161 | 0.0 | 7.0 | 0.00 | 0.00 | 0.00 | 38 | 1007.1 |
| 20260504230104 | 69 | 173 | 0.0 | 3.5 | 0.00 | 0.00 | 0.00 | 38 | 1007.0 |
| 20260504224559 | 70 | 185 | 4.3 | 13.0 | 0.00 | 0.00 | 0.00 | 37 | 1007.0 |